sensor_id;sensor_type;location;lat;lon;timestamp;P1;durP1;ratioP1;P2;durP2;ratioP2
50205;SDS011;36098;48.390;10.856;2023-07-20T00:00:58;3.00;;;1.63;;
50205;SDS011;36098;48.390;10.856;2023-07-20T00:03:23;2.65;;;1.65;;
50205;SDS011;36098;48.390;10.856;2023-07-20T00:05:50;2.67;;;1.65;;
50205;SDS011;36098;48.390;10.856;2023-07-20T00:08:17;2.15;;;1.60;;
50205;SDS011;36098;48.390;10.856;2023-07-20T00:10:43;2.08;;;1.70;;
50205;SDS011;36098;48.390;10.856;2023-07-20T00:13:09;2.85;;;1.60;;
50205;SDS011;36098;48.390;10.856;2023-07-20T00:15:35;2.42;;;1.50;;
50205;SDS011;36098;48.390;10.856;2023-07-20T00:18:00;2.75;;;1.88;;
50205;SDS011;36098;48.390;10.856;2023-07-20T00:20:26;3.00;;;1.67;;
50205;SDS011;36098;48.390;10.856;2023-07-20T00:22:51;2.33;;;1.50;;
50205;SDS011;36098;48.390;10.856;2023-07-20T00:25:17;1.83;;;1.33;;
50205;SDS011;36098;48.390;10.856;2023-07-20T00:27:43;2.58;;;1.48;;
50205;SDS011;36098;48.390;10.856;2023-07-20T00:30:08;3.83;;;1.65;;
50205;SDS011;36098;48.390;10.856;2023-07-20T00:32:34;1.85;;;1.35;;
50205;SDS011;36098;48.390;10.856;2023-07-20T00:34:59;2.80;;;1.70;;
50205;SDS011;36098;48.390;10.856;2023-07-20T00:37:24;3.45;;;1.70;;
50205;SDS011;36098;48.390;10.856;2023-07-20T00:39:50;2.20;;;1.48;;
50205;SDS011;36098;48.390;10.856;2023-07-20T00:42:16;2.78;;;1.58;;
50205;SDS011;36098;48.390;10.856;2023-07-20T00:44:41;2.28;;;1.60;;
50205;SDS011;36098;48.390;10.856;2023-07-20T00:47:06;2.60;;;1.65;;
50205;SDS011;36098;48.390;10.856;2023-07-20T00:49:31;2.40;;;1.42;;
50205;SDS011;36098;48.390;10.856;2023-07-20T00:51:58;2.78;;;1.25;;
50205;SDS011;36098;48.390;10.856;2023-07-20T00:54:24;2.10;;;1.35;;
50205;SDS011;36098;48.390;10.856;2023-07-20T00:56:50;2.38;;;1.45;;
50205;SDS011;36098;48.390;10.856;2023-07-20T00:59:17;1.92;;;1.35;;
50205;SDS011;36098;48.390;10.856;2023-07-20T01:01:43;2.03;;;1.40;;
50205;SDS011;36098;48.390;10.856;2023-07-20T01:04:08;1.67;;;1.30;;
50205;SDS011;36098;48.390;10.856;2023-07-20T01:09:26;2.42;;;1.52;;
50205;SDS011;36098;48.390;10.856;2023-07-20T01:14:28;2.65;;;1.60;;
50205;SDS011;36098;48.390;10.856;2023-07-20T01:16:54;2.38;;;1.42;;
50205;SDS011;36098;48.390;10.856;2023-07-20T01:19:20;1.90;;;1.35;;
50205;SDS011;36098;48.390;10.856;2023-07-20T01:21:48;2.20;;;1.40;;
50205;SDS011;36098;48.390;10.856;2023-07-20T01:32:51;1.70;;;1.30;;
50205;SDS011;36098;48.390;10.856;2023-07-20T01:35:20;2.33;;;1.40;;
50205;SDS011;36098;48.390;10.856;2023-07-20T01:37:48;2.25;;;1.50;;
50205;SDS011;36098;48.390;10.856;2023-07-20T01:40:15;1.80;;;1.38;;
50205;SDS011;36098;48.390;10.856;2023-07-20T01:42:45;2.78;;;1.60;;
50205;SDS011;36098;48.390;10.856;2023-07-20T01:45:11;1.92;;;1.30;;
50205;SDS011;36098;48.390;10.856;2023-07-20T01:47:36;2.10;;;1.30;;
50205;SDS011;36098;48.390;10.856;2023-07-20T01:50:02;1.92;;;1.40;;
50205;SDS011;36098;48.390;10.856;2023-07-20T01:52:27;2.42;;;1.38;;
50205;SDS011;36098;48.390;10.856;2023-07-20T01:54:53;1.75;;;1.25;;
50205;SDS011;36098;48.390;10.856;2023-07-20T01:57:18;1.85;;;1.27;;
50205;SDS011;36098;48.390;10.856;2023-07-20T01:59:43;1.90;;;1.20;;
50205;SDS011;36098;48.390;10.856;2023-07-20T02:02:09;1.50;;;1.10;;
50205;SDS011;36098;48.390;10.856;2023-07-20T02:04:34;1.60;;;1.30;;
50205;SDS011;36098;48.390;10.856;2023-07-20T02:06:59;2.40;;;1.42;;
50205;SDS011;36098;48.390;10.856;2023-07-20T02:09:25;1.75;;;1.05;;
50205;SDS011;36098;48.390;10.856;2023-07-20T02:11:50;1.95;;;1.25;;
50205;SDS011;36098;48.390;10.856;2023-07-20T02:14:15;1.95;;;1.40;;
50205;SDS011;36098;48.390;10.856;2023-07-20T02:16:41;2.30;;;1.20;;
50205;SDS011;36098;48.390;10.856;2023-07-20T02:19:06;1.73;;;1.25;;
50205;SDS011;36098;48.390;10.856;2023-07-20T02:21:32;1.95;;;1.40;;
50205;SDS011;36098;48.390;10.856;2023-07-20T02:23:57;1.70;;;1.17;;
50205;SDS011;36098;48.390;10.856;2023-07-20T02:26:22;1.98;;;1.58;;
50205;SDS011;36098;48.390;10.856;2023-07-20T02:28:48;2.28;;;1.38;;
50205;SDS011;36098;48.390;10.856;2023-07-20T02:31:13;1.58;;;1.17;;
50205;SDS011;36098;48.390;10.856;2023-07-20T02:33:38;1.67;;;1.30;;
50205;SDS011;36098;48.390;10.856;2023-07-20T02:36:04;1.40;;;1.10;;
50205;SDS011;36098;48.390;10.856;2023-07-20T02:38:29;1.40;;;1.00;;
50205;SDS011;36098;48.390;10.856;2023-07-20T02:40:54;1.98;;;1.30;;
50205;SDS011;36098;48.390;10.856;2023-07-20T02:43:20;2.75;;;1.50;;
50205;SDS011;36098;48.390;10.856;2023-07-20T02:45:45;2.17;;;1.20;;
50205;SDS011;36098;48.390;10.856;2023-07-20T02:48:10;1.92;;;1.40;;
50205;SDS011;36098;48.390;10.856;2023-07-20T02:50:35;2.33;;;1.27;;
50205;SDS011;36098;48.390;10.856;2023-07-20T02:53:01;2.72;;;1.25;;
50205;SDS011;36098;48.390;10.856;2023-07-20T02:55:27;1.75;;;1.00;;
50205;SDS011;36098;48.390;10.856;2023-07-20T02:57:52;1.83;;;1.27;;
50205;SDS011;36098;48.390;10.856;2023-07-20T03:00:17;2.30;;;1.40;;
50205;SDS011;36098;48.390;10.856;2023-07-20T03:02:44;2.08;;;1.42;;
50205;SDS011;36098;48.390;10.856;2023-07-20T03:05:12;1.77;;;1.13;;
50205;SDS011;36098;48.390;10.856;2023-07-20T03:07:38;2.00;;;1.27;;
50205;SDS011;36098;48.390;10.856;2023-07-20T03:10:03;2.47;;;1.30;;
50205;SDS011;36098;48.390;10.856;2023-07-20T03:12:29;2.22;;;1.20;;
50205;SDS011;36098;48.390;10.856;2023-07-20T03:14:54;1.50;;;1.13;;
50205;SDS011;36098;48.390;10.856;2023-07-20T03:17:21;2.22;;;1.40;;
50205;SDS011;36098;48.390;10.856;2023-07-20T03:19:47;2.42;;;1.40;;
50205;SDS011;36098;48.390;10.856;2023-07-20T03:22:12;1.70;;;1.15;;
50205;SDS011;36098;48.390;10.856;2023-07-20T03:24:37;1.65;;;1.30;;
50205;SDS011;36098;48.390;10.856;2023-07-20T03:27:03;1.55;;;1.20;;
50205;SDS011;36098;48.390;10.856;2023-07-20T03:29:28;1.70;;;1.15;;
50205;SDS011;36098;48.390;10.856;2023-07-20T03:31:53;1.77;;;1.10;;
50205;SDS011;36098;48.390;10.856;2023-07-20T03:34:18;1.80;;;1.20;;
50205;SDS011;36098;48.390;10.856;2023-07-20T03:36:44;1.75;;;1.15;;
50205;SDS011;36098;48.390;10.856;2023-07-20T03:39:09;1.83;;;1.15;;
50205;SDS011;36098;48.390;10.856;2023-07-20T03:41:34;1.67;;;1.00;;
50205;SDS011;36098;48.390;10.856;2023-07-20T03:44:00;1.92;;;1.10;;
50205;SDS011;36098;48.390;10.856;2023-07-20T03:46:25;1.30;;;0.90;;
50205;SDS011;36098;48.390;10.856;2023-07-20T03:48:50;1.98;;;1.13;;
50205;SDS011;36098;48.390;10.856;2023-07-20T03:51:15;2.20;;;1.10;;
50205;SDS011;36098;48.390;10.856;2023-07-20T03:53:41;1.77;;;1.10;;
50205;SDS011;36098;48.390;10.856;2023-07-20T03:56:06;1.60;;;1.10;;
50205;SDS011;36098;48.390;10.856;2023-07-20T03:58:31;1.95;;;1.40;;
50205;SDS011;36098;48.390;10.856;2023-07-20T04:00:57;1.60;;;1.20;;
50205;SDS011;36098;48.390;10.856;2023-07-20T04:03:22;1.45;;;1.05;;
50205;SDS011;36098;48.390;10.856;2023-07-20T04:05:49;1.92;;;1.33;;
50205;SDS011;36098;48.390;10.856;2023-07-20T04:08:15;1.83;;;1.10;;
50205;SDS011;36098;48.390;10.856;2023-07-20T04:10:43;2.13;;;1.17;;
50205;SDS011;36098;48.390;10.856;2023-07-20T04:13:08;1.80;;;1.30;;
50205;SDS011;36098;48.390;10.856;2023-07-20T04:15:34;1.48;;;1.15;;
50205;SDS011;36098;48.390;10.856;2023-07-20T04:17:59;1.55;;;1.20;;
50205;SDS011;36098;48.390;10.856;2023-07-20T04:20:25;2.00;;;1.13;;
50205;SDS011;36098;48.390;10.856;2023-07-20T04:22:51;1.35;;;1.10;;
50205;SDS011;36098;48.390;10.856;2023-07-20T04:25:17;2.00;;;1.20;;
50205;SDS011;36098;48.390;10.856;2023-07-20T04:27:43;1.35;;;1.10;;
50205;SDS011;36098;48.390;10.856;2023-07-20T04:30:08;1.52;;;1.20;;
50205;SDS011;36098;48.390;10.856;2023-07-20T04:32:35;1.55;;;1.15;;
50205;SDS011;36098;48.390;10.856;2023-07-20T04:35:00;1.83;;;1.13;;
50205;SDS011;36098;48.390;10.856;2023-07-20T04:37:26;2.15;;;1.30;;
50205;SDS011;36098;48.390;10.856;2023-07-20T04:39:51;1.50;;;1.08;;
50205;SDS011;36098;48.390;10.856;2023-07-20T04:42:16;1.15;;;0.90;;
50205;SDS011;36098;48.390;10.856;2023-07-20T04:44:41;1.77;;;1.17;;
50205;SDS011;36098;48.390;10.856;2023-07-20T04:47:07;1.80;;;1.08;;
50205;SDS011;36098;48.390;10.856;2023-07-20T04:49:33;1.73;;;1.00;;
50205;SDS011;36098;48.390;10.856;2023-07-20T04:51:58;2.15;;;1.23;;
50205;SDS011;36098;48.390;10.856;2023-07-20T04:54:24;1.80;;;1.20;;
50205;SDS011;36098;48.390;10.856;2023-07-20T04:56:49;1.60;;;1.30;;
50205;SDS011;36098;48.390;10.856;2023-07-20T04:59:14;3.50;;;1.30;;
50205;SDS011;36098;48.390;10.856;2023-07-20T05:01:40;4.55;;;1.27;;
50205;SDS011;36098;48.390;10.856;2023-07-20T05:04:05;3.90;;;1.42;;
50205;SDS011;36098;48.390;10.856;2023-07-20T05:06:31;6.38;;;1.60;;
50205;SDS011;36098;48.390;10.856;2023-07-20T05:08:56;3.97;;;1.40;;
50205;SDS011;36098;48.390;10.856;2023-07-20T05:11:22;5.22;;;1.50;;
50205;SDS011;36098;48.390;10.856;2023-07-20T05:13:47;2.63;;;1.50;;
50205;SDS011;36098;48.390;10.856;2023-07-20T05:16:12;3.95;;;1.63;;
50205;SDS011;36098;48.390;10.856;2023-07-20T05:18:38;2.45;;;1.60;;
50205;SDS011;36098;48.390;10.856;2023-07-20T05:21:05;4.20;;;1.60;;
50205;SDS011;36098;48.390;10.856;2023-07-20T05:23:30;5.45;;;1.52;;
50205;SDS011;36098;48.390;10.856;2023-07-20T05:25:56;4.95;;;1.75;;
50205;SDS011;36098;48.390;10.856;2023-07-20T05:28:23;3.88;;;1.60;;
50205;SDS011;36098;48.390;10.856;2023-07-20T05:30:49;5.50;;;1.55;;
50205;SDS011;36098;48.390;10.856;2023-07-20T05:33:16;4.43;;;1.38;;
50205;SDS011;36098;48.390;10.856;2023-07-20T05:35:42;3.58;;;1.50;;
50205;SDS011;36098;48.390;10.856;2023-07-20T05:38:08;2.63;;;1.40;;
50205;SDS011;36098;48.390;10.856;2023-07-20T05:40:33;2.60;;;1.40;;
50205;SDS011;36098;48.390;10.856;2023-07-20T05:42:58;2.58;;;1.30;;
50205;SDS011;36098;48.390;10.856;2023-07-20T05:45:25;4.25;;;1.70;;
50205;SDS011;36098;48.390;10.856;2023-07-20T05:47:50;3.85;;;1.27;;
50205;SDS011;36098;48.390;10.856;2023-07-20T05:50:16;3.85;;;1.50;;
50205;SDS011;36098;48.390;10.856;2023-07-20T05:52:41;3.20;;;1.50;;
50205;SDS011;36098;48.390;10.856;2023-07-20T05:55:06;3.13;;;1.30;;
50205;SDS011;36098;48.390;10.856;2023-07-20T05:57:32;5.32;;;1.48;;
50205;SDS011;36098;48.390;10.856;2023-07-20T05:59:58;2.45;;;1.38;;
50205;SDS011;36098;48.390;10.856;2023-07-20T06:02:24;2.58;;;1.55;;
50205;SDS011;36098;48.390;10.856;2023-07-20T06:04:49;3.22;;;1.55;;
50205;SDS011;36098;48.390;10.856;2023-07-20T06:07:14;2.85;;;1.50;;
50205;SDS011;36098;48.390;10.856;2023-07-20T06:09:40;2.58;;;1.40;;
50205;SDS011;36098;48.390;10.856;2023-07-20T06:12:05;2.58;;;1.10;;
50205;SDS011;36098;48.390;10.856;2023-07-20T06:14:31;3.17;;;1.25;;
50205;SDS011;36098;48.390;10.856;2023-07-20T06:16:56;2.20;;;1.40;;
50205;SDS011;36098;48.390;10.856;2023-07-20T06:19:22;2.88;;;1.45;;
50205;SDS011;36098;48.390;10.856;2023-07-20T06:21:47;2.70;;;1.25;;
50205;SDS011;36098;48.390;10.856;2023-07-20T06:24:14;3.58;;;1.60;;
50205;SDS011;36098;48.390;10.856;2023-07-20T06:26:39;2.05;;;1.45;;
50205;SDS011;36098;48.390;10.856;2023-07-20T06:29:05;2.33;;;1.48;;
50205;SDS011;36098;48.390;10.856;2023-07-20T06:31:40;2.63;;;1.48;;
50205;SDS011;36098;48.390;10.856;2023-07-20T06:34:05;3.60;;;1.70;;
50205;SDS011;36098;48.390;10.856;2023-07-20T06:36:30;2.65;;;1.40;;
50205;SDS011;36098;48.390;10.856;2023-07-20T06:38:56;3.47;;;1.73;;
50205;SDS011;36098;48.390;10.856;2023-07-20T06:41:21;7.40;;;2.00;;
50205;SDS011;36098;48.390;10.856;2023-07-20T06:43:47;4.18;;;2.08;;
50205;SDS011;36098;48.390;10.856;2023-07-20T06:46:12;2.33;;;1.63;;
50205;SDS011;36098;48.390;10.856;2023-07-20T06:48:37;5.10;;;1.95;;
50205;SDS011;36098;48.390;10.856;2023-07-20T06:51:03;3.47;;;1.70;;
50205;SDS011;36098;48.390;10.856;2023-07-20T06:53:29;4.00;;;1.67;;
50205;SDS011;36098;48.390;10.856;2023-07-20T06:55:55;3.10;;;1.77;;
50205;SDS011;36098;48.390;10.856;2023-07-20T06:58:22;6.93;;;1.80;;
50205;SDS011;36098;48.390;10.856;2023-07-20T07:00:48;4.45;;;1.83;;
50205;SDS011;36098;48.390;10.856;2023-07-20T07:03:13;4.13;;;1.55;;
50205;SDS011;36098;48.390;10.856;2023-07-20T07:05:38;2.58;;;1.73;;
50205;SDS011;36098;48.390;10.856;2023-07-20T07:08:04;5.85;;;1.90;;
50205;SDS011;36098;48.390;10.856;2023-07-20T07:10:30;3.58;;;2.05;;
50205;SDS011;36098;48.390;10.856;2023-07-20T07:12:55;5.07;;;2.13;;
50205;SDS011;36098;48.390;10.856;2023-07-20T07:15:20;4.30;;;1.75;;
50205;SDS011;36098;48.390;10.856;2023-07-20T07:17:46;4.35;;;1.67;;
50205;SDS011;36098;48.390;10.856;2023-07-20T07:20:11;3.80;;;1.77;;
50205;SDS011;36098;48.390;10.856;2023-07-20T07:22:36;4.88;;;2.33;;
50205;SDS011;36098;48.390;10.856;2023-07-20T07:25:02;3.53;;;1.60;;
50205;SDS011;36098;48.390;10.856;2023-07-20T07:27:28;2.58;;;1.65;;
50205;SDS011;36098;48.390;10.856;2023-07-20T07:29:53;3.05;;;1.85;;
50205;SDS011;36098;48.390;10.856;2023-07-20T07:32:19;3.15;;;1.75;;
50205;SDS011;36098;48.390;10.856;2023-07-20T07:34:44;3.60;;;1.55;;
50205;SDS011;36098;48.390;10.856;2023-07-20T07:37:11;3.70;;;1.60;;
50205;SDS011;36098;48.390;10.856;2023-07-20T07:39:36;4.53;;;2.00;;
50205;SDS011;36098;48.390;10.856;2023-07-20T07:42:02;2.97;;;1.65;;
50205;SDS011;36098;48.390;10.856;2023-07-20T07:44:27;4.45;;;2.00;;
50205;SDS011;36098;48.390;10.856;2023-07-20T07:46:52;5.65;;;1.88;;
50205;SDS011;36098;48.390;10.856;2023-07-20T07:49:18;2.78;;;1.58;;
50205;SDS011;36098;48.390;10.856;2023-07-20T07:51:44;3.40;;;1.60;;
50205;SDS011;36098;48.390;10.856;2023-07-20T07:54:09;2.70;;;1.75;;
50205;SDS011;36098;48.390;10.856;2023-07-20T07:56:35;4.90;;;1.77;;
50205;SDS011;36098;48.390;10.856;2023-07-20T07:59:00;2.28;;;1.40;;
50205;SDS011;36098;48.390;10.856;2023-07-20T08:01:25;2.47;;;1.45;;
50205;SDS011;36098;48.390;10.856;2023-07-20T08:03:50;2.67;;;1.45;;
50205;SDS011;36098;48.390;10.856;2023-07-20T08:06:16;3.20;;;1.58;;
50205;SDS011;36098;48.390;10.856;2023-07-20T08:08:41;2.78;;;1.63;;
50205;SDS011;36098;48.390;10.856;2023-07-20T08:11:07;3.58;;;1.80;;
50205;SDS011;36098;48.390;10.856;2023-07-20T08:13:33;3.80;;;1.60;;
50205;SDS011;36098;48.390;10.856;2023-07-20T08:15:58;5.13;;;1.75;;
50205;SDS011;36098;48.390;10.856;2023-07-20T08:18:24;2.95;;;1.60;;
50205;SDS011;36098;48.390;10.856;2023-07-20T08:20:49;2.83;;;1.35;;
50205;SDS011;36098;48.390;10.856;2023-07-20T08:23:15;2.30;;;1.50;;
50205;SDS011;36098;48.390;10.856;2023-07-20T08:25:41;3.65;;;1.70;;
50205;SDS011;36098;48.390;10.856;2023-07-20T08:28:09;2.45;;;1.50;;
50205;SDS011;36098;48.390;10.856;2023-07-20T08:30:39;2.17;;;1.40;;
50205;SDS011;36098;48.390;10.856;2023-07-20T08:33:18;2.53;;;1.50;;
50205;SDS011;36098;48.390;10.856;2023-07-20T08:35:47;2.60;;;1.40;;
50205;SDS011;36098;48.390;10.856;2023-07-20T08:38:12;3.60;;;1.40;;
50205;SDS011;36098;48.390;10.856;2023-07-20T08:40:39;3.05;;;1.30;;
50205;SDS011;36098;48.390;10.856;2023-07-20T08:43:05;3.17;;;1.40;;
50205;SDS011;36098;48.390;10.856;2023-07-20T08:45:32;3.85;;;1.60;;
50205;SDS011;36098;48.390;10.856;2023-07-20T08:48:00;2.55;;;1.63;;
50205;SDS011;36098;48.390;10.856;2023-07-20T08:50:28;3.03;;;1.67;;
50205;SDS011;36098;48.390;10.856;2023-07-20T08:52:56;2.70;;;1.25;;
50205;SDS011;36098;48.390;10.856;2023-07-20T08:55:23;3.47;;;1.55;;
50205;SDS011;36098;48.390;10.856;2023-07-20T08:57:55;2.30;;;1.48;;
50205;SDS011;36098;48.390;10.856;2023-07-20T09:00:22;2.60;;;1.60;;
50205;SDS011;36098;48.390;10.856;2023-07-20T09:02:55;4.22;;;1.63;;
50205;SDS011;36098;48.390;10.856;2023-07-20T09:05:21;3.03;;;1.55;;
50205;SDS011;36098;48.390;10.856;2023-07-20T09:07:48;3.78;;;1.30;;
50205;SDS011;36098;48.390;10.856;2023-07-20T09:10:14;4.35;;;1.52;;
50205;SDS011;36098;48.390;10.856;2023-07-20T09:12:42;4.53;;;1.40;;
50205;SDS011;36098;48.390;10.856;2023-07-20T09:15:08;2.83;;;1.60;;
50205;SDS011;36098;48.390;10.856;2023-07-20T09:17:34;2.47;;;1.45;;
50205;SDS011;36098;48.390;10.856;2023-07-20T09:20:03;3.03;;;1.45;;
50205;SDS011;36098;48.390;10.856;2023-07-20T09:22:34;3.50;;;1.40;;
50205;SDS011;36098;48.390;10.856;2023-07-20T09:24:59;2.13;;;1.23;;
50205;SDS011;36098;48.390;10.856;2023-07-20T09:27:34;3.25;;;1.50;;
50205;SDS011;36098;48.390;10.856;2023-07-20T09:30:03;3.40;;;1.50;;
50205;SDS011;36098;48.390;10.856;2023-07-20T09:32:29;2.35;;;1.25;;
50205;SDS011;36098;48.390;10.856;2023-07-20T09:34:55;2.75;;;1.17;;
50205;SDS011;36098;48.390;10.856;2023-07-20T09:37:20;2.25;;;1.40;;
50205;SDS011;36098;48.390;10.856;2023-07-20T09:39:47;5.35;;;1.48;;
50205;SDS011;36098;48.390;10.856;2023-07-20T09:42:14;4.40;;;1.50;;
50205;SDS011;36098;48.390;10.856;2023-07-20T09:44:42;2.33;;;1.10;;
50205;SDS011;36098;48.390;10.856;2023-07-20T09:47:08;5.32;;;1.40;;
50205;SDS011;36098;48.390;10.856;2023-07-20T09:49:38;3.78;;;1.50;;
50205;SDS011;36098;48.390;10.856;2023-07-20T09:52:05;7.82;;;1.48;;
50205;SDS011;36098;48.390;10.856;2023-07-20T09:54:30;3.15;;;1.40;;
50205;SDS011;36098;48.390;10.856;2023-07-20T09:56:57;3.10;;;1.50;;
50205;SDS011;36098;48.390;10.856;2023-07-20T09:59:23;2.72;;;1.60;;
50205;SDS011;36098;48.390;10.856;2023-07-20T10:01:49;3.42;;;1.52;;
50205;SDS011;36098;48.390;10.856;2023-07-20T10:04:14;3.15;;;1.33;;
50205;SDS011;36098;48.390;10.856;2023-07-20T10:06:42;5.93;;;1.80;;
50205;SDS011;36098;48.390;10.856;2023-07-20T10:09:08;2.63;;;1.60;;
50205;SDS011;36098;48.390;10.856;2023-07-20T10:11:37;3.83;;;1.48;;
50205;SDS011;36098;48.390;10.856;2023-07-20T10:14:08;6.68;;;1.73;;
50205;SDS011;36098;48.390;10.856;2023-07-20T10:16:36;2.50;;;1.40;;
50205;SDS011;36098;48.390;10.856;2023-07-20T10:19:22;2.08;;;1.40;;
50205;SDS011;36098;48.390;10.856;2023-07-20T10:21:56;5.38;;;1.50;;
50205;SDS011;36098;48.390;10.856;2023-07-20T10:24:26;2.88;;;1.38;;
50205;SDS011;36098;48.390;10.856;2023-07-20T10:26:54;3.35;;;1.38;;
50205;SDS011;36098;48.390;10.856;2023-07-20T10:29:20;2.85;;;1.48;;
50205;SDS011;36098;48.390;10.856;2023-07-20T10:31:46;2.55;;;1.40;;
50205;SDS011;36098;48.390;10.856;2023-07-20T10:34:13;2.78;;;1.30;;
50205;SDS011;36098;48.390;10.856;2023-07-20T10:36:43;2.45;;;1.50;;
50205;SDS011;36098;48.390;10.856;2023-07-20T10:39:23;6.53;;;1.33;;
50205;SDS011;36098;48.390;10.856;2023-07-20T10:41:50;1.98;;;1.40;;
50205;SDS011;36098;48.390;10.856;2023-07-20T10:44:25;4.53;;;1.58;;
50205;SDS011;36098;48.390;10.856;2023-07-20T10:46:51;3.65;;;1.50;;
50205;SDS011;36098;48.390;10.856;2023-07-20T10:49:24;3.33;;;1.50;;
50205;SDS011;36098;48.390;10.856;2023-07-20T10:51:56;3.55;;;1.35;;
50205;SDS011;36098;48.390;10.856;2023-07-20T10:56:48;3.53;;;1.23;;
50205;SDS011;36098;48.390;10.856;2023-07-20T10:59:18;3.90;;;1.50;;
50205;SDS011;36098;48.390;10.856;2023-07-20T11:01:45;2.30;;;1.55;;
50205;SDS011;36098;48.390;10.856;2023-07-20T11:04:12;3.40;;;1.83;;
50205;SDS011;36098;48.390;10.856;2023-07-20T11:06:37;6.00;;;2.20;;
50205;SDS011;36098;48.390;10.856;2023-07-20T11:09:08;4.90;;;1.70;;
50205;SDS011;36098;48.390;10.856;2023-07-20T11:11:41;6.97;;;2.67;;
50205;SDS011;36098;48.390;10.856;2023-07-20T11:14:08;9.10;;;4.00;;
50205;SDS011;36098;48.390;10.856;2023-07-20T11:16:42;10.00;;;3.58;;
50205;SDS011;36098;48.390;10.856;2023-07-20T11:19:19;7.68;;;3.92;;
50205;SDS011;36098;48.390;10.856;2023-07-20T11:21:47;4.80;;;2.47;;
50205;SDS011;36098;48.390;10.856;2023-07-20T11:24:15;5.03;;;2.22;;
50205;SDS011;36098;48.390;10.856;2023-07-20T11:26:41;4.25;;;1.92;;
50205;SDS011;36098;48.390;10.856;2023-07-20T11:29:06;4.13;;;2.00;;
50205;SDS011;36098;48.390;10.856;2023-07-20T11:31:34;6.32;;;1.80;;
50205;SDS011;36098;48.390;10.856;2023-07-20T11:34:01;3.65;;;1.63;;
50205;SDS011;36098;48.390;10.856;2023-07-20T11:36:26;7.72;;;1.90;;
50205;SDS011;36098;48.390;10.856;2023-07-20T11:38:51;4.57;;;1.75;;
50205;SDS011;36098;48.390;10.856;2023-07-20T11:41:16;4.55;;;1.40;;
50205;SDS011;36098;48.390;10.856;2023-07-20T11:43:42;4.82;;;2.00;;
50205;SDS011;36098;48.390;10.856;2023-07-20T11:46:07;7.20;;;2.30;;
50205;SDS011;36098;48.390;10.856;2023-07-20T11:48:33;2.05;;;1.10;;
50205;SDS011;36098;48.390;10.856;2023-07-20T11:50:59;2.00;;;1.55;;
50205;SDS011;36098;48.390;10.856;2023-07-20T11:53:24;3.28;;;1.60;;
50205;SDS011;36098;48.390;10.856;2023-07-20T11:55:50;4.90;;;1.58;;
50205;SDS011;36098;48.390;10.856;2023-07-20T11:58:16;1.92;;;1.35;;
50205;SDS011;36098;48.390;10.856;2023-07-20T12:00:42;2.97;;;1.50;;
50205;SDS011;36098;48.390;10.856;2023-07-20T12:03:09;11.13;;;1.35;;
50205;SDS011;36098;48.390;10.856;2023-07-20T12:05:36;3.25;;;1.70;;
50205;SDS011;36098;48.390;10.856;2023-07-20T12:08:02;2.67;;;1.55;;
50205;SDS011;36098;48.390;10.856;2023-07-20T12:10:28;4.60;;;1.38;;
50205;SDS011;36098;48.390;10.856;2023-07-20T12:12:54;3.88;;;1.70;;
50205;SDS011;36098;48.390;10.856;2023-07-20T12:15:24;2.65;;;1.50;;
50205;SDS011;36098;48.390;10.856;2023-07-20T12:18:00;2.58;;;1.40;;
50205;SDS011;36098;48.390;10.856;2023-07-20T12:20:30;3.58;;;1.50;;
50205;SDS011;36098;48.390;10.856;2023-07-20T12:23:00;2.72;;;1.75;;
50205;SDS011;36098;48.390;10.856;2023-07-20T12:25:36;2.22;;;1.30;;
50205;SDS011;36098;48.390;10.856;2023-07-20T12:28:01;4.65;;;1.52;;
50205;SDS011;36098;48.390;10.856;2023-07-20T12:30:29;2.70;;;1.20;;
50205;SDS011;36098;48.390;10.856;2023-07-20T12:32:54;3.35;;;1.30;;
50205;SDS011;36098;48.390;10.856;2023-07-20T12:35:20;1.83;;;1.30;;
50205;SDS011;36098;48.390;10.856;2023-07-20T12:37:45;1.90;;;1.40;;
50205;SDS011;36098;48.390;10.856;2023-07-20T12:40:14;4.00;;;2.03;;
50205;SDS011;36098;48.390;10.856;2023-07-20T12:42:39;3.08;;;1.63;;
50205;SDS011;36098;48.390;10.856;2023-07-20T12:45:05;2.58;;;1.50;;
50205;SDS011;36098;48.390;10.856;2023-07-20T12:47:31;4.78;;;1.55;;
50205;SDS011;36098;48.390;10.856;2023-07-20T12:49:56;4.00;;;1.60;;
50205;SDS011;36098;48.390;10.856;2023-07-20T12:52:21;2.47;;;1.30;;
50205;SDS011;36098;48.390;10.856;2023-07-20T12:54:46;3.03;;;1.40;;
50205;SDS011;36098;48.390;10.856;2023-07-20T12:57:12;3.75;;;1.30;;
50205;SDS011;36098;48.390;10.856;2023-07-20T12:59:37;2.83;;;1.35;;
50205;SDS011;36098;48.390;10.856;2023-07-20T13:02:02;2.33;;;1.50;;
50205;SDS011;36098;48.390;10.856;2023-07-20T13:04:28;2.67;;;1.45;;
50205;SDS011;36098;48.390;10.856;2023-07-20T13:06:53;2.70;;;1.20;;
50205;SDS011;36098;48.390;10.856;2023-07-20T13:09:19;2.88;;;1.33;;
50205;SDS011;36098;48.390;10.856;2023-07-20T13:11:45;2.20;;;1.25;;
50205;SDS011;36098;48.390;10.856;2023-07-20T13:14:10;2.47;;;1.40;;
50205;SDS011;36098;48.390;10.856;2023-07-20T13:16:36;4.43;;;1.45;;
50205;SDS011;36098;48.390;10.856;2023-07-20T13:19:02;2.35;;;1.45;;
50205;SDS011;36098;48.390;10.856;2023-07-20T13:21:27;1.83;;;1.30;;
50205;SDS011;36098;48.390;10.856;2023-07-20T13:23:52;2.08;;;1.30;;
50205;SDS011;36098;48.390;10.856;2023-07-20T13:26:18;3.20;;;1.25;;
50205;SDS011;36098;48.390;10.856;2023-07-20T13:28:43;1.83;;;1.30;;
50205;SDS011;36098;48.390;10.856;2023-07-20T13:31:09;3.88;;;1.60;;
50205;SDS011;36098;48.390;10.856;2023-07-20T13:33:35;4.57;;;1.48;;
50205;SDS011;36098;48.390;10.856;2023-07-20T13:36:01;2.13;;;1.40;;
50205;SDS011;36098;48.390;10.856;2023-07-20T13:38:27;2.67;;;1.40;;
50205;SDS011;36098;48.390;10.856;2023-07-20T13:40:52;2.72;;;1.55;;
50205;SDS011;36098;48.390;10.856;2023-07-20T13:43:17;2.45;;;1.30;;
50205;SDS011;36098;48.390;10.856;2023-07-20T13:45:42;2.40;;;1.60;;
50205;SDS011;36098;48.390;10.856;2023-07-20T13:48:08;4.00;;;1.40;;
50205;SDS011;36098;48.390;10.856;2023-07-20T13:50:33;3.28;;;1.30;;
50205;SDS011;36098;48.390;10.856;2023-07-20T13:52:58;2.85;;;1.20;;
50205;SDS011;36098;48.390;10.856;2023-07-20T13:55:24;2.78;;;1.60;;
50205;SDS011;36098;48.390;10.856;2023-07-20T13:57:49;3.20;;;1.48;;
50205;SDS011;36098;48.390;10.856;2023-07-20T14:00:15;3.03;;;1.38;;
50205;SDS011;36098;48.390;10.856;2023-07-20T14:02:41;3.30;;;1.40;;
50205;SDS011;36098;48.390;10.856;2023-07-20T14:05:07;3.35;;;1.30;;
50205;SDS011;36098;48.390;10.856;2023-07-20T14:07:33;3.50;;;1.83;;
50205;SDS011;36098;48.390;10.856;2023-07-20T14:09:58;4.13;;;1.83;;
50205;SDS011;36098;48.390;10.856;2023-07-20T14:12:24;9.13;;;1.67;;
50205;SDS011;36098;48.390;10.856;2023-07-20T14:14:49;5.38;;;1.40;;
50205;SDS011;36098;48.390;10.856;2023-07-20T14:17:14;6.13;;;1.65;;
50205;SDS011;36098;48.390;10.856;2023-07-20T14:19:40;7.13;;;1.67;;
50205;SDS011;36098;48.390;10.856;2023-07-20T14:22:05;4.75;;;1.73;;
50205;SDS011;36098;48.390;10.856;2023-07-20T14:24:30;2.92;;;1.42;;
50205;SDS011;36098;48.390;10.856;2023-07-20T14:26:56;4.72;;;1.63;;
50205;SDS011;36098;48.390;10.856;2023-07-20T14:29:21;9.63;;;1.70;;
50205;SDS011;36098;48.390;10.856;2023-07-20T14:31:46;3.28;;;1.52;;
50205;SDS011;36098;48.390;10.856;2023-07-20T14:34:16;3.45;;;1.48;;
50205;SDS011;36098;48.390;10.856;2023-07-20T14:36:43;5.70;;;1.58;;
50205;SDS011;36098;48.390;10.856;2023-07-20T14:39:09;2.58;;;1.48;;
50205;SDS011;36098;48.390;10.856;2023-07-20T14:41:34;4.35;;;1.55;;
50205;SDS011;36098;48.390;10.856;2023-07-20T14:43:59;3.53;;;1.70;;